createdAt,value
2023-02-27T00:04:45.843Z,81.32
2023-02-27T00:07:40.012Z,81.70
2023-02-27T00:10:09.739Z,81.95
2023-02-27T00:12:42.006Z,81.44
2023-02-27T00:15:24.315Z,81.38
2023-02-27T00:17:51.852Z,81.59
2023-02-27T00:20:24.040Z,81.40
2023-02-27T00:22:52.083Z,81.65
2023-02-27T00:25:19.770Z,81.72
2023-02-27T00:28:14.052Z,81.68
2023-02-27T00:30:41.901Z,81.40
2023-02-27T00:33:10.030Z,81.47
2023-02-27T00:35:38.065Z,81.64
2023-02-27T00:38:05.917Z,81.93
2023-02-27T00:40:35.917Z,82.12
2023-02-27T00:43:07.794Z,82.08
2023-02-27T00:45:35.793Z,82.04
2023-02-27T00:48:04.526Z,82.09
2023-02-27T00:50:31.798Z,82.34
2023-02-27T00:52:59.808Z,82.09
2023-02-27T00:55:54.003Z,81.63
2023-02-27T00:58:25.892Z,82.07
2023-02-27T01:00:55.978Z,82.22
2023-02-27T01:03:47.985Z,81.91
2023-02-27T01:06:15.813Z,81.70
2023-02-27T01:08:44.128Z,82.05
2023-02-27T01:14:34.984Z,82.31
2023-02-27T01:17:02.041Z,82.14
2023-02-27T01:19:33.833Z,82.18
2023-02-27T01:22:02.109Z,81.82
2023-02-27T01:24:29.971Z,81.91
2023-02-27T01:26:57.915Z,82.13
2023-02-27T01:29:26.170Z,82.08
2023-02-27T01:31:54.226Z,82.57
2023-02-27T01:34:27.777Z,82.10
2023-02-27T01:37:21.133Z,82.01
2023-02-27T01:40:14.311Z,81.86
2023-02-27T01:42:42.487Z,81.98
2023-02-27T01:45:42.465Z,82.29
2023-02-27T01:48:22.299Z,82.24
2023-02-27T01:51:13.924Z,82.04
2023-02-27T01:53:46.567Z,81.96
2023-02-27T01:56:24.519Z,82.05
2023-02-27T01:59:18.661Z,81.98
2023-02-27T02:01:52.117Z,82.04
2023-02-27T02:04:26.712Z,82.04
2023-02-27T02:07:08.732Z,82.03
2023-02-27T02:10:07.570Z,82.34
2023-02-27T02:12:38.258Z,82.27
2023-02-27T02:15:06.909Z,82.42
2023-02-27T02:17:51.717Z,82.43
2023-02-27T02:20:59.912Z,82.26
2023-02-27T02:23:48.432Z,82.64
2023-02-27T02:26:24.994Z,82.35
2023-02-27T02:29:01.031Z,82.46
2023-02-27T02:32:10.762Z,82.20
2023-02-27T02:35:05.565Z,82.58
2023-02-27T02:37:42.722Z,82.59
2023-02-27T02:40:19.209Z,82.38
2023-02-27T02:43:17.350Z,82.35
2023-02-27T02:45:59.761Z,82.42
2023-02-27T02:48:54.146Z,82.49
2023-02-27T02:51:35.828Z,81.65
2023-02-27T02:54:25.039Z,82.05
2023-02-27T02:57:05.447Z,82.34
2023-02-27T03:00:06.176Z,82.41
2023-02-27T03:02:47.008Z,82.41
2023-02-27T03:05:26.420Z,82.04
2023-02-27T03:07:58.840Z,82.32
2023-02-27T03:10:36.371Z,82.30
2023-02-27T03:13:10.249Z,82.70
2023-02-27T03:16:12.894Z,82.65
2023-02-27T03:18:54.022Z,82.48
2023-02-27T03:21:45.708Z,82.44
2023-02-27T03:24:20.739Z,82.77
2023-02-27T03:26:59.658Z,82.89
2023-02-27T03:29:37.270Z,82.56
2023-02-27T03:32:36.629Z,82.59
2023-02-27T03:35:07.365Z,82.75
2023-02-27T03:38:15.988Z,82.03
2023-02-27T03:41:07.966Z,82.22
2023-02-27T03:43:53.203Z,82.47
2023-02-27T03:46:24.778Z,82.57
2023-02-27T03:48:52.052Z,82.67
2023-02-27T03:51:22.919Z,82.32
2023-02-27T03:54:08.215Z,82.43
2023-02-27T03:57:07.710Z,82.37
2023-02-27T03:59:37.979Z,82.32
2023-02-27T04:02:05.850Z,82.45
2023-02-27T04:04:41.022Z,82.44
2023-02-27T04:07:42.520Z,82.77
2023-02-27T04:10:21.716Z,82.69
2023-02-27T04:13:17.919Z,82.52
2023-02-27T04:19:58.076Z,82.50
2023-02-27T04:22:45.331Z,82.61
2023-02-27T04:25:54.125Z,82.60
2023-02-27T04:28:56.741Z,82.60
2023-02-27T04:31:30.059Z,82.74
2023-02-27T04:34:01.392Z,82.77
2023-02-27T04:36:41.538Z,82.92
2023-02-27T04:39:31.928Z,82.62
2023-02-27T04:42:01.844Z,82.73
2023-02-27T04:44:37.697Z,82.73
2023-02-27T04:47:12.846Z,82.94
2023-02-27T04:49:51.554Z,82.33
2023-02-27T04:52:25.693Z,82.61
2023-02-27T04:55:04.201Z,82.63
2023-02-27T04:57:38.639Z,83.00
2023-02-27T05:00:09.191Z,82.98
2023-02-27T05:05:43.419Z,82.88
2023-02-27T05:08:29.135Z,83.09
2023-02-27T05:11:05.936Z,83.15
2023-02-27T05:13:47.924Z,83.04
2023-02-27T05:16:24.683Z,82.98
2023-02-27T05:18:51.884Z,83.02
2023-02-27T05:21:27.932Z,83.04
2023-02-27T05:24:22.070Z,83.06
2023-02-27T05:26:49.733Z,83.02
2023-02-27T05:29:41.294Z,82.93
2023-02-27T05:32:40.847Z,82.89
2023-02-27T05:35:23.469Z,83.02
2023-02-27T05:37:55.629Z,82.90
2023-02-27T05:40:35.863Z,83.09
2023-02-27T05:43:15.089Z,83.34
2023-02-27T05:45:49.838Z,82.78
2023-02-27T05:48:22.710Z,83.09
2023-02-27T05:50:52.864Z,83.09
2023-02-27T05:53:34.204Z,83.44
2023-02-27T05:56:04.742Z,83.26
2023-02-27T06:01:50.896Z,82.90
2023-02-27T06:04:17.809Z,83.02
2023-02-27T06:07:09.816Z,83.18
2023-02-27T06:09:55.835Z,82.73
2023-02-27T06:12:26.451Z,82.91
2023-02-27T06:15:02.637Z,82.88
2023-02-27T06:17:30.585Z,82.90
2023-02-27T06:19:57.804Z,82.83
2023-02-27T06:22:25.887Z,83.10
2023-02-27T06:24:54.468Z,83.10
2023-02-27T06:27:22.203Z,83.79
2023-02-27T06:29:49.929Z,83.28
2023-02-27T06:32:18.175Z,82.50
2023-02-27T06:34:46.270Z,83.28
2023-02-27T06:37:13.758Z,83.03
2023-02-27T06:39:44.516Z,83.27
2023-02-27T06:42:11.819Z,83.21
2023-02-27T06:44:40.061Z,83.06
2023-02-27T06:47:12.796Z,82.96
2023-02-27T06:49:39.788Z,83.11
2023-02-27T06:52:08.124Z,82.85
2023-02-27T06:54:39.788Z,83.23
2023-02-27T06:57:07.853Z,82.98
2023-02-27T06:59:39.838Z,83.30
2023-02-27T07:02:07.780Z,83.09
2023-02-27T07:04:35.955Z,83.31
2023-02-27T07:07:32.579Z,83.49
2023-02-27T07:09:51.788Z,83.67
2023-02-27T07:12:22.079Z,83.30
2023-02-27T07:14:49.785Z,83.43
2023-02-27T07:17:17.777Z,84.13
2023-02-27T07:22:40.976Z,83.65
2023-02-27T07:25:09.613Z,83.45
2023-02-27T07:27:40.207Z,84.44
2023-02-27T07:30:10.506Z,85.04
2023-02-27T07:32:40.228Z,85.49
2023-02-27T07:35:08.589Z,86.23
2023-02-27T07:37:36.130Z,86.38
2023-02-27T07:40:05.453Z,86.64
2023-02-27T07:42:34.200Z,86.25
2023-02-27T07:45:09.008Z,86.02
2023-02-27T07:47:36.166Z,86.59
2023-02-27T07:50:04.773Z,86.96
2023-02-27T07:52:32.086Z,87.89
2023-02-27T07:55:00.030Z,88.19
2023-02-27T07:57:27.930Z,88.22
2023-02-27T07:59:55.879Z,88.60
2023-02-27T08:02:24.044Z,88.71
2023-02-27T08:04:52.666Z,88.67
2023-02-27T08:07:19.783Z,89.21
2023-02-27T08:09:47.774Z,89.30
2023-02-27T08:12:15.794Z,89.41
2023-02-27T08:14:43.770Z,90.49
2023-02-27T08:17:21.319Z,90.48
2023-02-27T08:19:49.877Z,90.53
2023-02-27T08:22:24.626Z,90.48
2023-02-27T08:24:52.308Z,90.40
2023-02-27T08:27:45.880Z,90.96
2023-02-27T08:30:18.369Z,90.96
2023-02-27T08:32:46.064Z,90.71
2023-02-27T08:35:14.072Z,90.83
2023-02-27T08:37:41.834Z,90.98
2023-02-27T08:40:16.228Z,91.05
2023-02-27T08:42:43.995Z,90.80
2023-02-27T08:45:12.195Z,90.02
2023-02-27T08:47:39.748Z,89.54
2023-02-27T08:50:33.477Z,88.91
2023-02-27T08:55:56.342Z,87.67
2023-02-27T08:58:23.926Z,87.74
2023-02-27T09:00:56.980Z,87.09
2023-02-27T09:03:29.282Z,86.86
2023-02-27T09:05:58.688Z,86.39
2023-02-27T09:08:27.623Z,85.82
2023-02-27T09:17:09.772Z,83.12
2023-02-27T09:39:39.574Z,77.92
2023-02-27T10:00:54.141Z,72.18
2023-02-27T10:04:15.020Z,67.47
2023-02-27T10:06:52.623Z,69.09
2023-02-27T10:09:46.118Z,66.56
2023-02-27T10:15:33.032Z,69.06
2023-02-27T10:20:52.789Z,68.75
2023-02-27T10:23:27.644Z,69.01
2023-02-27T10:25:57.821Z,71.37
2023-02-27T10:28:30.054Z,69.59
2023-02-27T10:31:01.126Z,69.38
2023-02-27T10:33:56.940Z,67.46
2023-02-27T10:36:33.942Z,65.03
2023-02-27T10:42:11.051Z,68.71
2023-02-27T10:44:44.328Z,65.95
2023-02-27T10:53:03.646Z,65.69
2023-02-27T10:55:46.916Z,65.86
2023-02-27T10:58:20.504Z,63.09
2023-02-27T11:00:59.704Z,66.00
2023-02-27T11:04:04.005Z,66.02
2023-02-27T11:09:23.328Z,68.01
2023-02-27T11:12:33.336Z,67.18
2023-02-27T11:15:23.732Z,67.86
2023-02-27T11:17:53.216Z,65.75
2023-02-27T11:20:41.324Z,62.95
2023-02-27T11:23:24.375Z,62.87
2023-02-27T11:26:15.348Z,65.60
2023-02-27T11:28:44.588Z,65.42
2023-02-27T11:31:23.475Z,67.67
2023-02-27T11:33:56.029Z,63.64
2023-02-27T11:58:43.121Z,65.59
2023-02-27T12:01:20.249Z,63.38
2023-02-27T12:03:58.554Z,65.04
2023-02-27T12:09:42.305Z,66.82
2023-02-27T12:15:53.764Z,63.45
2023-02-27T12:18:26.034Z,64.52
2023-02-27T12:21:12.019Z,60.72
2023-02-27T12:23:51.014Z,64.87
2023-02-27T12:53:41.733Z,61.78
2023-02-27T12:59:11.755Z,65.59
2023-02-27T13:01:59.666Z,61.87
2023-02-27T13:04:50.410Z,64.48
2023-02-27T13:07:20.707Z,60.74
2023-02-27T13:09:55.354Z,62.46
2023-02-27T13:12:40.156Z,62.61
2023-02-27T13:15:19.214Z,61.01
2023-02-27T13:18:04.713Z,60.63
2023-02-27T13:20:50.485Z,60.93
2023-02-27T13:23:40.765Z,61.19
2023-02-27T13:29:20.168Z,58.19
2023-02-27T13:41:06.513Z,58.96
2023-02-27T13:46:59.134Z,58.26
2023-02-27T13:55:11.206Z,58.82
2023-02-27T13:58:08.223Z,59.77
2023-02-27T14:00:41.970Z,60.21
2023-02-27T14:29:37.817Z,55.30
2023-02-27T14:37:44.191Z,55.37
2023-02-27T14:40:29.734Z,55.94
2023-02-27T14:46:37.113Z,55.89
2023-02-27T15:11:26.378Z,59.85
2023-02-27T15:31:52.030Z,65.14
2023-02-27T15:39:52.387Z,65.71
2023-02-27T15:42:38.390Z,66.77
2023-02-27T17:05:28.089Z,68.16
2023-02-27T17:10:39.607Z,69.54
2023-02-27T17:13:10.548Z,70.12
2023-02-27T17:39:29.933Z,71.67
